EGOP

Pembrey Sands Airport

Pembrey Sands, United Kingdom
METAR EGOP 241350Z AUTO 22008KT 9999 // NCD 19/13 Q1025
Observed Flight Rules
Jun-24 @ 13:50 UTC (an hour ago) Visual Flight Rules
Wind Visibility Clouds
220° at 8 knots 10,000+ meters
  • Clear skies
Temperatures Readings
Current 19°C / 66°F
Dewpoint 13°C / 55°F
Humidity 68%
Altimeter 30.27" Hg
Pressure 1025 hPa
Elevation 6
METAR EGOP 241350Z AUTO 22008KT 9999 // NCD 19/13 Q1025
Observed Flight Rules
Jun-24 @ 13:50 UTC
(an hour ago)
VFR
Wind Visibility
220° at 8 knots 10,000+ meters
Clouds
  • Clear skies
Temperature Dewpoint
19°C / 66°F 13°C / 55°F
Humidity Altimeter Pressure
68% 30.27" Hg 1025 hPa